Capitol Logistics 250


KMIA
Miami International Airport
Miami, Florida, US
PANC
Ted Stevens Anchorage International Airport
Anchorage, Alaska, US

Route Details

Aircraft Information
Primary: Boeing 747-400BCF
Backup: Boeing 777-200LRF
Route Data
Distance: 3479nm
Sched. Duration: 7h 54m
Avg. Duration: 8h 20m (+66m)
Times Flown: 7
Recm'd Route: WINCO2 WINCO CHRRI SMELZ Q116 JAWJA MGM IGB UJM OSW HLC MBW DBS PDT J20 SEA J523 TOU J501 YAZ Q801 YZP TR19 FRIED J804R EEDEN J804R MDO WITTI4
Planned Altitude: 36,000ft
Origin Wx: KMIA 160653Z 24006KT 10SM FEW030 SCT100 BKN160 OVC200 21/17 A2990 RMK AO2 SLP123 T02060167
Dest. Wx: PANC 160653Z 00000KT 10SM FEW045 M03/M06 A2958 RMK AO2 SLP018 I1000 T10331061
Notes:

Financial History
Total Freight: 501,654lbs
Average Load: 71,665lbs/flt
Fuel Used: 981,243lbs
Avg. Fuel Used: 140,178lbs/flt
Fuel Expense: $1,206,929
Avg. Fuel Expense: $172,418
Avg. Fuel Cost: $1.23/lbs
Total Gross Income: $992,395
Pilot Pay: $1,583
Total Expenses: $106,567
Total Revenue: $-335,609
Average Revenue: $141,770.76